sensor_id;sensor_type;location;lat;lon;timestamp;temperature;humidity
15111;DHT22;7656;51.954;7.998;2022-12-29T00:01:25;10.50;99.90
15111;DHT22;7656;51.954;7.998;2022-12-29T00:05:54;10.50;99.90
15111;DHT22;7656;51.954;7.998;2022-12-29T00:10:15;10.40;99.90
15111;DHT22;7656;51.954;7.998;2022-12-29T00:14:37;10.30;99.90
15111;DHT22;7656;51.954;7.998;2022-12-29T00:19:16;10.30;99.90
15111;DHT22;7656;51.954;7.998;2022-12-29T00:23:56;10.30;99.90
15111;DHT22;7656;51.954;7.998;2022-12-29T00:28:29;10.30;99.90
15111;DHT22;7656;51.954;7.998;2022-12-29T00:33:17;10.40;99.90
15111;DHT22;7656;51.954;7.998;2022-12-29T00:38:03;10.40;99.90
15111;DHT22;7656;51.954;7.998;2022-12-29T00:42:45;10.60;99.90
15111;DHT22;7656;51.954;7.998;2022-12-29T00:47:24;10.60;99.90
15111;DHT22;7656;51.954;7.998;2022-12-29T00:51:46;10.60;99.90
15111;DHT22;7656;51.954;7.998;2022-12-29T00:56:07;10.60;99.90
15111;DHT22;7656;51.954;7.998;2022-12-29T01:00:28;10.50;99.90
15111;DHT22;7656;51.954;7.998;2022-12-29T01:04:50;10.50;99.90
15111;DHT22;7656;51.954;7.998;2022-12-29T01:09:11;10.70;99.90
15111;DHT22;7656;51.954;7.998;2022-12-29T01:13:52;10.80;99.90
15111;DHT22;7656;51.954;7.998;2022-12-29T01:18:13;10.70;99.90
15111;DHT22;7656;51.954;7.998;2022-12-29T01:22:34;10.70;99.90
15111;DHT22;7656;51.954;7.998;2022-12-29T01:26:55;10.60;99.90
15111;DHT22;7656;51.954;7.998;2022-12-29T01:31:16;10.70;99.90
15111;DHT22;7656;51.954;7.998;2022-12-29T01:35:37;10.90;99.90
15111;DHT22;7656;51.954;7.998;2022-12-29T01:39:58;11.10;99.90
15111;DHT22;7656;51.954;7.998;2022-12-29T01:44:52;10.90;99.90
15111;DHT22;7656;51.954;7.998;2022-12-29T01:49:18;10.80;99.90
15111;DHT22;7656;51.954;7.998;2022-12-29T01:53:42;11.10;99.90
15111;DHT22;7656;51.954;7.998;2022-12-29T01:58:05;11.10;99.90
15111;DHT22;7656;51.954;7.998;2022-12-29T02:02:27;11.00;99.90
15111;DHT22;7656;51.954;7.998;2022-12-29T02:06:52;11.00;99.90
15111;DHT22;7656;51.954;7.998;2022-12-29T02:11:15;11.00;99.90
15111;DHT22;7656;51.954;7.998;2022-12-29T02:15:53;10.80;99.90
15111;DHT22;7656;51.954;7.998;2022-12-29T02:40:20;10.90;99.90
15111;DHT22;7656;51.954;7.998;2022-12-29T02:45:12;10.90;99.90
15111;DHT22;7656;51.954;7.998;2022-12-29T02:49:45;10.90;99.90
15111;DHT22;7656;51.954;7.998;2022-12-29T02:54:10;10.90;99.90
15111;DHT22;7656;51.954;7.998;2022-12-29T02:58:49;11.00;99.90
15111;DHT22;7656;51.954;7.998;2022-12-29T03:03:29;11.20;99.90
15111;DHT22;7656;51.954;7.998;2022-12-29T03:13:40;11.30;99.90
15111;DHT22;7656;51.954;7.998;2022-12-29T03:18:45;11.40;99.90
15111;DHT22;7656;51.954;7.998;2022-12-29T03:23:13;11.40;99.90
15111;DHT22;7656;51.954;7.998;2022-12-29T03:27:50;11.40;99.90
15111;DHT22;7656;51.954;7.998;2022-12-29T03:32:15;11.60;99.90
15111;DHT22;7656;51.954;7.998;2022-12-29T03:36:44;11.60;99.90
15111;DHT22;7656;51.954;7.998;2022-12-29T03:41:31;11.50;99.90
15111;DHT22;7656;51.954;7.998;2022-12-29T03:45:55;11.60;99.90
15111;DHT22;7656;51.954;7.998;2022-12-29T03:50:16;11.60;99.90
15111;DHT22;7656;51.954;7.998;2022-12-29T03:54:38;11.70;99.90
15111;DHT22;7656;51.954;7.998;2022-12-29T03:59:00;11.80;99.90
15111;DHT22;7656;51.954;7.998;2022-12-29T04:03:33;11.80;99.90
15111;DHT22;7656;51.954;7.998;2022-12-29T04:07:54;11.80;99.90
15111;DHT22;7656;51.954;7.998;2022-12-29T04:12:15;11.90;99.90
15111;DHT22;7656;51.954;7.998;2022-12-29T04:16:37;11.80;99.90
15111;DHT22;7656;51.954;7.998;2022-12-29T04:21:00;11.80;99.90
15111;DHT22;7656;51.954;7.998;2022-12-29T04:25:22;11.80;99.90
15111;DHT22;7656;51.954;7.998;2022-12-29T04:29:43;11.70;99.90
15111;DHT22;7656;51.954;7.998;2022-12-29T04:34:25;11.70;99.90
15111;DHT22;7656;51.954;7.998;2022-12-29T04:38:46;11.60;99.90
15111;DHT22;7656;51.954;7.998;2022-12-29T04:43:08;11.20;99.90
15111;DHT22;7656;51.954;7.998;2022-12-29T04:47:37;11.00;99.90
15111;DHT22;7656;51.954;7.998;2022-12-29T04:52:16;11.20;99.90
15111;DHT22;7656;51.954;7.998;2022-12-29T04:56:39;11.20;99.90
15111;DHT22;7656;51.954;7.998;2022-12-29T05:01:01;11.20;99.90
15111;DHT22;7656;51.954;7.998;2022-12-29T05:05:25;11.00;99.90
15111;DHT22;7656;51.954;7.998;2022-12-29T05:09:46;11.10;99.90
15111;DHT22;7656;51.954;7.998;2022-12-29T05:14:07;11.10;99.90
15111;DHT22;7656;51.954;7.998;2022-12-29T05:18:29;10.80;99.90
15111;DHT22;7656;51.954;7.998;2022-12-29T05:22:52;10.90;99.90
15111;DHT22;7656;51.954;7.998;2022-12-29T05:27:13;11.00;99.90
15111;DHT22;7656;51.954;7.998;2022-12-29T05:31:54;10.90;99.90
15111;DHT22;7656;51.954;7.998;2022-12-29T05:36:16;11.00;99.90
15111;DHT22;7656;51.954;7.998;2022-12-29T05:40:43;11.00;99.90
15111;DHT22;7656;51.954;7.998;2022-12-29T05:45:21;11.00;99.90
15111;DHT22;7656;51.954;7.998;2022-12-29T05:50:11;11.10;99.90
15111;DHT22;7656;51.954;7.998;2022-12-29T05:54:51;11.00;99.90
15111;DHT22;7656;51.954;7.998;2022-12-29T05:59:15;10.70;99.90
15111;DHT22;7656;51.954;7.998;2022-12-29T06:03:37;10.40;99.90
15111;DHT22;7656;51.954;7.998;2022-12-29T06:07:58;10.30;99.90
15111;DHT22;7656;51.954;7.998;2022-12-29T06:12:19;10.20;99.90
15111;DHT22;7656;51.954;7.998;2022-12-29T06:16:44;10.00;99.90
15111;DHT22;7656;51.954;7.998;2022-12-29T06:21:07;10.00;99.90
15111;DHT22;7656;51.954;7.998;2022-12-29T06:25:30;10.10;99.90
15111;DHT22;7656;51.954;7.998;2022-12-29T06:29:53;10.00;99.90
15111;DHT22;7656;51.954;7.998;2022-12-29T06:34:14;10.00;99.90
15111;DHT22;7656;51.954;7.998;2022-12-29T06:38:35;10.00;99.90
15111;DHT22;7656;51.954;7.998;2022-12-29T06:42:56;10.10;99.90
15111;DHT22;7656;51.954;7.998;2022-12-29T06:47:50;10.20;99.90
15111;DHT22;7656;51.954;7.998;2022-12-29T06:52:11;10.30;99.90
15111;DHT22;7656;51.954;7.998;2022-12-29T06:56:32;10.30;99.90
15111;DHT22;7656;51.954;7.998;2022-12-29T07:00:53;10.30;99.90
15111;DHT22;7656;51.954;7.998;2022-12-29T07:05:15;10.20;99.90
15111;DHT22;7656;51.954;7.998;2022-12-29T07:09:36;9.90;99.90
15111;DHT22;7656;51.954;7.998;2022-12-29T07:13:57;9.80;99.90
15111;DHT22;7656;51.954;7.998;2022-12-29T07:18:18;9.80;99.90
15111;DHT22;7656;51.954;7.998;2022-12-29T07:22:39;9.80;99.90
15111;DHT22;7656;51.954;7.998;2022-12-29T07:27:00;9.90;99.90
15111;DHT22;7656;51.954;7.998;2022-12-29T07:31:22;9.90;99.90
15111;DHT22;7656;51.954;7.998;2022-12-29T07:35:44;10.00;99.90
15111;DHT22;7656;51.954;7.998;2022-12-29T07:40:05;10.00;99.90
15111;DHT22;7656;51.954;7.998;2022-12-29T07:44:27;10.00;99.90
15111;DHT22;7656;51.954;7.998;2022-12-29T07:49:06;10.20;99.90
15111;DHT22;7656;51.954;7.998;2022-12-29T07:53:28;10.30;99.90
15111;DHT22;7656;51.954;7.998;2022-12-29T07:57:49;10.20;99.90
15111;DHT22;7656;51.954;7.998;2022-12-29T08:02:10;10.30;99.90
15111;DHT22;7656;51.954;7.998;2022-12-29T08:06:32;10.30;99.90
15111;DHT22;7656;51.954;7.998;2022-12-29T08:10:53;10.20;99.90
15111;DHT22;7656;51.954;7.998;2022-12-29T08:15:14;10.30;99.90
15111;DHT22;7656;51.954;7.998;2022-12-29T08:19:35;10.40;99.90
15111;DHT22;7656;51.954;7.998;2022-12-29T08:23:57;10.40;99.90
15111;DHT22;7656;51.954;7.998;2022-12-29T08:28:19;10.60;99.90
15111;DHT22;7656;51.954;7.998;2022-12-29T08:32:40;10.60;99.90
15111;DHT22;7656;51.954;7.998;2022-12-29T08:37:01;10.50;99.90
15111;DHT22;7656;51.954;7.998;2022-12-29T08:41:23;10.50;99.90
15111;DHT22;7656;51.954;7.998;2022-12-29T08:45:44;10.60;99.90
15111;DHT22;7656;51.954;7.998;2022-12-29T08:50:05;10.60;99.90
15111;DHT22;7656;51.954;7.998;2022-12-29T08:54:27;10.60;99.90
15111;DHT22;7656;51.954;7.998;2022-12-29T08:58:50;10.90;99.90
15111;DHT22;7656;51.954;7.998;2022-12-29T09:03:13;12.20;99.90
15111;DHT22;7656;51.954;7.998;2022-12-29T09:07:34;12.00;99.90
15111;DHT22;7656;51.954;7.998;2022-12-29T09:11:55;11.90;99.90
15111;DHT22;7656;51.954;7.998;2022-12-29T09:16:16;11.70;99.90
15111;DHT22;7656;51.954;7.998;2022-12-29T09:20:38;11.60;99.90
15111;DHT22;7656;51.954;7.998;2022-12-29T09:24:59;11.80;99.90
15111;DHT22;7656;51.954;7.998;2022-12-29T09:29:20;11.70;99.90
15111;DHT22;7656;51.954;7.998;2022-12-29T09:33:41;11.50;99.90
15111;DHT22;7656;51.954;7.998;2022-12-29T09:38:03;11.30;99.90
15111;DHT22;7656;51.954;7.998;2022-12-29T09:42:32;11.30;99.90
15111;DHT22;7656;51.954;7.998;2022-12-29T09:46:58;11.50;99.90
15111;DHT22;7656;51.954;7.998;2022-12-29T09:51:23;11.40;99.90
15111;DHT22;7656;51.954;7.998;2022-12-29T09:55:53;11.30;99.90
15111;DHT22;7656;51.954;7.998;2022-12-29T10:00:18;11.70;99.90
15111;DHT22;7656;51.954;7.998;2022-12-29T10:04:42;12.50;99.90
15111;DHT22;7656;51.954;7.998;2022-12-29T10:09:42;13.20;99.90
15111;DHT22;7656;51.954;7.998;2022-12-29T10:23:47;12.20;99.90
15111;DHT22;7656;51.954;7.998;2022-12-29T10:28:37;12.00;99.90
15111;DHT22;7656;51.954;7.998;2022-12-29T10:33:05;11.80;99.90
15111;DHT22;7656;51.954;7.998;2022-12-29T10:37:59;11.70;99.90
15111;DHT22;7656;51.954;7.998;2022-12-29T10:42:42;11.80;99.90
15111;DHT22;7656;51.954;7.998;2022-12-29T10:47:08;11.90;99.90
15111;DHT22;7656;51.954;7.998;2022-12-29T10:51:37;11.90;99.90
15111;DHT22;7656;51.954;7.998;2022-12-29T10:56:01;11.80;99.90
15111;DHT22;7656;51.954;7.998;2022-12-29T11:00:35;11.70;99.90
15111;DHT22;7656;51.954;7.998;2022-12-29T11:09:48;11.70;99.90
15111;DHT22;7656;51.954;7.998;2022-12-29T11:14:21;11.80;99.90
15111;DHT22;7656;51.954;7.998;2022-12-29T11:18:47;11.90;99.90
15111;DHT22;7656;51.954;7.998;2022-12-29T11:28:02;11.80;99.90
15111;DHT22;7656;51.954;7.998;2022-12-29T11:32:33;11.70;99.90
15111;DHT22;7656;51.954;7.998;2022-12-29T11:37:01;11.60;99.90
15111;DHT22;7656;51.954;7.998;2022-12-29T11:41:29;11.70;99.90
15111;DHT22;7656;51.954;7.998;2022-12-29T11:45:52;11.70;99.90
15111;DHT22;7656;51.954;7.998;2022-12-29T11:50:23;11.70;99.90
15111;DHT22;7656;51.954;7.998;2022-12-29T11:54:47;11.80;99.90
15111;DHT22;7656;51.954;7.998;2022-12-29T12:04:07;11.60;99.90
15111;DHT22;7656;51.954;7.998;2022-12-29T12:08:38;11.60;99.90
15111;DHT22;7656;51.954;7.998;2022-12-29T12:13:08;11.60;99.90
15111;DHT22;7656;51.954;7.998;2022-12-29T12:17:55;11.70;99.90
15111;DHT22;7656;51.954;7.998;2022-12-29T12:27:02;11.60;99.90
15111;DHT22;7656;51.954;7.998;2022-12-29T12:31:59;11.60;99.90
15111;DHT22;7656;51.954;7.998;2022-12-29T12:36:56;11.60;99.90
15111;DHT22;7656;51.954;7.998;2022-12-29T12:51:20;11.60;99.90
15111;DHT22;7656;51.954;7.998;2022-12-29T13:00:25;11.90;99.90
15111;DHT22;7656;51.954;7.998;2022-12-29T13:05:02;11.80;99.90
15111;DHT22;7656;51.954;7.998;2022-12-29T13:23:57;11.50;99.90
15111;DHT22;7656;51.954;7.998;2022-12-29T13:28:56;11.30;99.90
15111;DHT22;7656;51.954;7.998;2022-12-29T13:33:49;11.20;99.90
15111;DHT22;7656;51.954;7.998;2022-12-29T13:42:47;11.50;99.90
15111;DHT22;7656;51.954;7.998;2022-12-29T13:52:09;11.40;99.90
15111;DHT22;7656;51.954;7.998;2022-12-29T13:56:45;11.30;99.90
15111;DHT22;7656;51.954;7.998;2022-12-29T14:01:22;11.50;99.90
15111;DHT22;7656;51.954;7.998;2022-12-29T14:06:51;11.40;99.90
15111;DHT22;7656;51.954;7.998;2022-12-29T14:10:51;11.30;99.90
15111;DHT22;7656;51.954;7.998;2022-12-29T14:19:42;11.20;99.90
15111;DHT22;7656;51.954;7.998;2022-12-29T14:30:01;11.30;99.90
15111;DHT22;7656;51.954;7.998;2022-12-29T14:38:32;11.60;99.90
15111;DHT22;7656;51.954;7.998;2022-12-29T14:42:55;11.60;99.90
15111;DHT22;7656;51.954;7.998;2022-12-29T14:47:39;11.60;99.90
15111;DHT22;7656;51.954;7.998;2022-12-29T14:52:12;11.60;99.90
15111;DHT22;7656;51.954;7.998;2022-12-29T14:56:38;11.50;99.90
15111;DHT22;7656;51.954;7.998;2022-12-29T15:01:00;11.40;99.90
15111;DHT22;7656;51.954;7.998;2022-12-29T15:05:29;11.40;99.90
15111;DHT22;7656;51.954;7.998;2022-12-29T15:10:11;11.20;99.90
15111;DHT22;7656;51.954;7.998;2022-12-29T15:14:36;11.20;99.90
15111;DHT22;7656;51.954;7.998;2022-12-29T15:19:00;11.20;99.90
15111;DHT22;7656;51.954;7.998;2022-12-29T15:23:21;11.10;99.90
15111;DHT22;7656;51.954;7.998;2022-12-29T15:27:51;11.20;99.90
15111;DHT22;7656;51.954;7.998;2022-12-29T15:32:24;11.20;99.90
15111;DHT22;7656;51.954;7.998;2022-12-29T15:36:50;11.40;99.90
15111;DHT22;7656;51.954;7.998;2022-12-29T15:45:49;11.30;99.90
15111;DHT22;7656;51.954;7.998;2022-12-29T15:50:26;11.10;99.90
15111;DHT22;7656;51.954;7.998;2022-12-29T15:54:51;11.00;99.90
15111;DHT22;7656;51.954;7.998;2022-12-29T15:59:33;11.10;99.90
15111;DHT22;7656;51.954;7.998;2022-12-29T16:03:55;11.10;99.90
15111;DHT22;7656;51.954;7.998;2022-12-29T16:12:53;11.00;99.90
15111;DHT22;7656;51.954;7.998;2022-12-29T16:17:17;11.10;99.90
15111;DHT22;7656;51.954;7.998;2022-12-29T16:21:42;11.20;99.90
15111;DHT22;7656;51.954;7.998;2022-12-29T16:26:03;11.30;99.90
15111;DHT22;7656;51.954;7.998;2022-12-29T16:30:31;11.20;99.90
15111;DHT22;7656;51.954;7.998;2022-12-29T16:35:15;11.00;99.90
15111;DHT22;7656;51.954;7.998;2022-12-29T16:39:38;10.90;99.90
15111;DHT22;7656;51.954;7.998;2022-12-29T16:44:26;10.90;99.90
15111;DHT22;7656;51.954;7.998;2022-12-29T16:48:54;10.40;99.90
15111;DHT22;7656;51.954;7.998;2022-12-29T16:53:20;10.40;99.90
15111;DHT22;7656;51.954;7.998;2022-12-29T16:57:46;10.20;99.90
15111;DHT22;7656;51.954;7.998;2022-12-29T17:02:16;10.00;99.90
15111;DHT22;7656;51.954;7.998;2022-12-29T17:06:40;10.10;99.90
15111;DHT22;7656;51.954;7.998;2022-12-29T17:11:01;10.20;99.90
15111;DHT22;7656;51.954;7.998;2022-12-29T17:15:41;10.10;99.90
15111;DHT22;7656;51.954;7.998;2022-12-29T17:20:14;10.00;99.90
15111;DHT22;7656;51.954;7.998;2022-12-29T17:24:40;9.90;99.90
15111;DHT22;7656;51.954;7.998;2022-12-29T17:29:01;10.00;99.90
15111;DHT22;7656;51.954;7.998;2022-12-29T17:33:22;10.10;99.90
15111;DHT22;7656;51.954;7.998;2022-12-29T17:37:43;10.10;99.90
15111;DHT22;7656;51.954;7.998;2022-12-29T17:42:08;10.10;99.90
15111;DHT22;7656;51.954;7.998;2022-12-29T17:46:30;9.90;99.90
15111;DHT22;7656;51.954;7.998;2022-12-29T17:50:52;9.70;99.90
15111;DHT22;7656;51.954;7.998;2022-12-29T17:59:23;9.40;99.90
15111;DHT22;7656;51.954;7.998;2022-12-29T18:03:44;9.40;99.90
15111;DHT22;7656;51.954;7.998;2022-12-29T18:08:09;9.40;99.90
15111;DHT22;7656;51.954;7.998;2022-12-29T18:12:39;9.40;99.90
15111;DHT22;7656;51.954;7.998;2022-12-29T18:17:10;9.40;99.90
15111;DHT22;7656;51.954;7.998;2022-12-29T18:21:32;9.50;99.90
15111;DHT22;7656;51.954;7.998;2022-12-29T18:30:31;9.20;99.90
15111;DHT22;7656;51.954;7.998;2022-12-29T18:34:52;9.00;99.90
15111;DHT22;7656;51.954;7.998;2022-12-29T18:39:13;9.00;99.90
15111;DHT22;7656;51.954;7.998;2022-12-29T18:43:34;8.90;99.90
15111;DHT22;7656;51.954;7.998;2022-12-29T18:47:55;8.80;99.90
15111;DHT22;7656;51.954;7.998;2022-12-29T18:52:16;8.60;99.90
15111;DHT22;7656;51.954;7.998;2022-12-29T18:56:37;8.70;99.90
15111;DHT22;7656;51.954;7.998;2022-12-29T19:00:58;8.60;99.90
15111;DHT22;7656;51.954;7.998;2022-12-29T19:05:30;8.50;99.90
15111;DHT22;7656;51.954;7.998;2022-12-29T19:10:01;8.50;99.90
15111;DHT22;7656;51.954;7.998;2022-12-29T19:14:22;8.40;99.90
15111;DHT22;7656;51.954;7.998;2022-12-29T19:18:43;8.40;99.90
15111;DHT22;7656;51.954;7.998;2022-12-29T19:23:09;8.30;99.90
15111;DHT22;7656;51.954;7.998;2022-12-29T19:27:32;8.30;99.90
15111;DHT22;7656;51.954;7.998;2022-12-29T19:31:54;8.40;99.90
15111;DHT22;7656;51.954;7.998;2022-12-29T19:36:15;8.40;99.90
15111;DHT22;7656;51.954;7.998;2022-12-29T19:40:44;8.40;99.90
15111;DHT22;7656;51.954;7.998;2022-12-29T19:45:10;8.20;99.90
15111;DHT22;7656;51.954;7.998;2022-12-29T19:49:31;8.20;99.90
15111;DHT22;7656;51.954;7.998;2022-12-29T19:53:53;8.20;99.90
15111;DHT22;7656;51.954;7.998;2022-12-29T19:58:15;8.00;99.90
15111;DHT22;7656;51.954;7.998;2022-12-29T20:02:36;8.00;99.90
15111;DHT22;7656;51.954;7.998;2022-12-29T20:06:57;8.00;99.90
15111;DHT22;7656;51.954;7.998;2022-12-29T20:11:18;8.10;99.90
15111;DHT22;7656;51.954;7.998;2022-12-29T20:15:42;8.10;99.90
15111;DHT22;7656;51.954;7.998;2022-12-29T20:20:04;8.10;99.90
15111;DHT22;7656;51.954;7.998;2022-12-29T20:24:26;8.00;99.90
15111;DHT22;7656;51.954;7.998;2022-12-29T20:28:48;7.90;99.90
15111;DHT22;7656;51.954;7.998;2022-12-29T20:33:10;7.90;99.90
15111;DHT22;7656;51.954;7.998;2022-12-29T20:37:31;8.00;99.90
15111;DHT22;7656;51.954;7.998;2022-12-29T20:41:52;7.90;99.90
15111;DHT22;7656;51.954;7.998;2022-12-29T20:46:13;8.10;99.90
15111;DHT22;7656;51.954;7.998;2022-12-29T20:50:35;8.20;99.90
15111;DHT22;7656;51.954;7.998;2022-12-29T20:54:56;8.30;99.90
15111;DHT22;7656;51.954;7.998;2022-12-29T20:59:17;8.40;99.90
15111;DHT22;7656;51.954;7.998;2022-12-29T21:03:39;8.40;99.90
15111;DHT22;7656;51.954;7.998;2022-12-29T21:08:00;8.40;99.90
15111;DHT22;7656;51.954;7.998;2022-12-29T21:12:21;8.50;99.90
15111;DHT22;7656;51.954;7.998;2022-12-29T21:16:42;8.40;99.90
15111;DHT22;7656;51.954;7.998;2022-12-29T21:21:06;8.50;99.90
15111;DHT22;7656;51.954;7.998;2022-12-29T21:25:42;8.50;99.90
15111;DHT22;7656;51.954;7.998;2022-12-29T21:30:04;8.70;99.90
15111;DHT22;7656;51.954;7.998;2022-12-29T21:34:25;8.70;99.90
15111;DHT22;7656;51.954;7.998;2022-12-29T21:38:46;8.50;99.90
15111;DHT22;7656;51.954;7.998;2022-12-29T21:43:09;8.50;99.90
15111;DHT22;7656;51.954;7.998;2022-12-29T21:47:34;8.50;99.90
15111;DHT22;7656;51.954;7.998;2022-12-29T21:52:13;8.60;99.90
15111;DHT22;7656;51.954;7.998;2022-12-29T21:56:34;8.60;99.90
15111;DHT22;7656;51.954;7.998;2022-12-29T22:00:55;8.60;99.90
15111;DHT22;7656;51.954;7.998;2022-12-29T22:05:35;8.50;99.90
15111;DHT22;7656;51.954;7.998;2022-12-29T22:10:14;8.60;99.90
15111;DHT22;7656;51.954;7.998;2022-12-29T22:14:55;8.60;99.90
15111;DHT22;7656;51.954;7.998;2022-12-29T22:19:16;8.70;99.90
15111;DHT22;7656;51.954;7.998;2022-12-29T22:23:37;8.70;99.90
15111;DHT22;7656;51.954;7.998;2022-12-29T22:27:58;8.70;99.90
15111;DHT22;7656;51.954;7.998;2022-12-29T22:32:19;8.40;99.90
15111;DHT22;7656;51.954;7.998;2022-12-29T22:36:40;8.40;99.90
15111;DHT22;7656;51.954;7.998;2022-12-29T22:41:01;8.40;99.90
15111;DHT22;7656;51.954;7.998;2022-12-29T22:45:22;8.50;99.90
15111;DHT22;7656;51.954;7.998;2022-12-29T22:49:43;8.50;99.90
15111;DHT22;7656;51.954;7.998;2022-12-29T22:54:04;8.70;99.90
15111;DHT22;7656;51.954;7.998;2022-12-29T22:58:26;8.70;99.90
15111;DHT22;7656;51.954;7.998;2022-12-29T23:02:47;8.60;99.90
15111;DHT22;7656;51.954;7.998;2022-12-29T23:07:08;8.60;99.90
15111;DHT22;7656;51.954;7.998;2022-12-29T23:11:29;8.40;99.90
15111;DHT22;7656;51.954;7.998;2022-12-29T23:15:51;8.50;99.90
15111;DHT22;7656;51.954;7.998;2022-12-29T23:20:12;8.40;99.90
15111;DHT22;7656;51.954;7.998;2022-12-29T23:24:33;8.30;99.90
15111;DHT22;7656;51.954;7.998;2022-12-29T23:28:55;8.20;99.90
15111;DHT22;7656;51.954;7.998;2022-12-29T23:33:18;8.30;99.90
15111;DHT22;7656;51.954;7.998;2022-12-29T23:37:39;8.40;99.90
15111;DHT22;7656;51.954;7.998;2022-12-29T23:42:00;8.50;99.90
15111;DHT22;7656;51.954;7.998;2022-12-29T23:46:23;8.40;99.90
15111;DHT22;7656;51.954;7.998;2022-12-29T23:50:46;8.30;99.90
15111;DHT22;7656;51.954;7.998;2022-12-29T23:55:07;8.30;99.90
15111;DHT22;7656;51.954;7.998;2022-12-29T23:59:29;8.30;99.90
